Time;durP1;ratioP1;P1;durP2;ratioP2;P2;SDS_P1;SDS_P2;PMS_P1;PMS_P2;Temp;Humidity;BMP_temperature;BMP_pressure;BME280_temperature;BME280_humidity;BME280_pressure;Samples;Min_cycle;Max_cycle;Signal;HPM_P1;HPM_P2
2021/04/22 00:00:49;;;;;;;8.73;6.38;;;6.10;68.30;;;;;;5198748;28;20038;-65
2021/04/22 00:03:21;;;;;;;10.25;6.43;;;6.00;68.70;;;;;;5198392;28;20078;-65
2021/04/22 00:05:52;;;;;;;8.55;6.38;;;5.90;69.60;;;;;;5198956;28;20096;-65
2021/04/22 00:08:24;;;;;;;9.40;6.53;;;5.80;69.80;;;;;;5200582;28;20103;-65
2021/04/22 00:10:57;;;;;;;9.45;7.30;;;5.80;71.80;;;;;;5201104;28;20045;-65
2021/04/22 00:13:29;;;;;;;9.30;6.80;;;5.80;73.60;;;;;;5200810;28;20068;-65
2021/04/22 00:16:04;;;;;;;9.55;6.28;;;5.70;75.20;;;;;;5200511;28;20053;-65
2021/04/22 00:18:35;;;;;;;9.55;6.80;;;5.60;74.90;;;;;;5199164;28;20045;-65
2021/04/22 00:21:07;;;;;;;9.82;6.78;;;5.70;75.80;;;;;;5200365;28;20045;-65
2021/04/22 00:23:38;;;;;;;10.27;7.30;;;5.70;74.40;;;;;;5200224;28;20127;-65
2021/04/22 00:26:10;;;;;;;9.93;6.70;;;5.60;74.90;;;;;;5198227;28;20133;-65
2021/04/22 00:28:41;;;;;;;9.23;7.60;;;5.60;73.80;;;;;;5201567;28;20737;-65
2021/04/22 00:31:14;;;;;;;9.50;6.55;;;5.50;74.60;;;;;;5194661;28;20077;-65
2021/04/22 00:33:45;;;;;;;10.00;7.13;;;5.30;75.20;;;;;;5203181;28;20057;-65
2021/04/22 00:36:17;;;;;;;9.75;7.22;;;5.30;74.70;;;;;;5194560;28;20045;-66
2021/04/22 00:38:48;;;;;;;11.10;7.25;;;5.20;75.00;;;;;;5198880;28;20038;-65
2021/04/22 00:41:21;;;;;;;8.20;6.10;;;5.20;75.00;;;;;;5199454;28;20945;-67
2021/04/22 00:43:53;;;;;;;8.25;6.50;;;5.30;76.50;;;;;;5234943;28;20045;-66
2021/04/22 00:46:25;;;;;;;8.52;6.43;;;5.30;75.60;;;;;;5203291;28;20049;-65
2021/04/22 00:48:56;;;;;;;9.55;7.22;;;5.30;75.30;;;;;;5204235;28;20801;-65
2021/04/22 00:51:28;;;;;;;9.73;6.63;;;5.30;74.70;;;;;;5236212;28;20131;-65
2021/04/22 00:54:00;;;;;;;9.02;6.85;;;5.30;74.40;;;;;;5236041;28;20045;-65
2021/04/22 00:56:33;;;;;;;8.40;6.18;;;5.40;73.30;;;;;;5203900;28;20044;-65
2021/04/22 00:59:04;;;;;;;10.00;6.95;;;5.50;74.60;;;;;;5202501;28;20654;-65
2021/04/22 01:01:36;;;;;;;10.82;7.80;;;5.50;74.00;;;;;;5206085;28;20037;-65
2021/04/22 01:04:07;;;;;;;10.07;7.53;;;5.50;74.30;;;;;;5202629;28;20090;-65
2021/04/22 01:06:39;;;;;;;10.93;7.65;;;5.50;74.00;;;;;;5202656;28;20042;-65
2021/04/22 01:09:14;;;;;;;9.27;7.03;;;5.60;73.80;;;;;;5204040;28;20041;-65
2021/04/22 01:11:45;;;;;;;8.18;5.75;;;5.70;75.00;;;;;;5201132;28;20438;-65
2021/04/22 01:14:17;;;;;;;8.35;5.65;;;5.70;74.40;;;;;;5200359;28;20091;-66
2021/04/22 01:16:49;;;;;;;8.43;6.57;;;5.70;73.10;;;;;;5202049;28;20045;-66
2021/04/22 01:19:22;;;;;;;9.40;7.03;;;5.80;73.10;;;;;;5202407;28;20383;-65
2021/04/22 01:21:54;;;;;;;8.13;6.22;;;5.70;74.20;;;;;;5202124;28;20072;-65
2021/04/22 01:24:26;;;;;;;10.63;6.38;;;5.70;74.40;;;;;;5203019;28;20557;-65
2021/04/22 01:26:58;;;;;;;9.63;6.43;;;5.70;75.10;;;;;;5201304;28;20145;-65
2021/04/22 01:29:29;;;;;;;8.48;6.40;;;5.70;75.00;;;;;;5200378;28;20114;-65
2021/04/22 01:32:01;;;;;;;9.18;6.55;;;5.70;75.10;;;;;;5185024;28;20108;-65
2021/04/22 01:34:32;;;;;;;8.82;6.80;;;5.70;75.10;;;;;;5203246;28;20476;-65
2021/04/22 01:37:04;;;;;;;8.25;6.00;;;5.70;75.10;;;;;;5204226;28;20574;-66
2021/04/22 01:39:36;;;;;;;8.73;6.38;;;5.70;75.10;;;;;;5202857;28;20119;-65
2021/04/22 01:42:08;;;;;;;10.20;6.93;;;5.70;75.50;;;;;;5203332;28;20095;-65
2021/04/22 01:44:39;;;;;;;8.00;6.40;;;5.60;74.90;;;;;;5202604;28;21010;-65
2021/04/22 01:47:10;;;;;;;9.93;6.57;;;5.60;75.00;;;;;;5202616;28;20469;-67
2021/04/22 01:49:42;;;;;;;7.53;5.85;;;5.70;75.50;;;;;;5203356;28;20049;-69
2021/04/22 01:52:13;;;;;;;8.43;6.03;;;5.70;74.70;;;;;;5200380;28;20095;-67
2021/04/22 01:54:45;;;;;;;9.50;6.90;;;5.70;75.00;;;;;;5203330;28;20087;-66
2021/04/22 01:57:16;;;;;;;7.70;5.80;;;5.70;75.00;;;;;;5202116;28;20064;-66
2021/04/22 01:59:47;;;;;;;7.80;5.82;;;5.80;73.90;;;;;;5205168;28;20407;-68
2021/04/22 02:02:19;;;;;;;7.93;5.70;;;5.80;73.20;;;;;;5201218;28;20141;-66
2021/04/22 02:04:50;;;;;;;8.18;6.38;;;5.80;73.30;;;;;;5234783;28;20073;-67
2021/04/22 02:07:22;;;;;;;7.35;5.82;;;5.80;73.40;;;;;;5204404;28;20045;-67
2021/04/22 02:09:53;;;;;;;7.65;5.85;;;5.80;73.20;;;;;;5217281;28;20037;-65
2021/04/22 02:12:25;;;;;;;7.22;5.85;;;5.70;74.10;;;;;;5203145;28;20045;-65
2021/04/22 02:14:56;;;;;;;7.43;5.85;;;5.80;72.80;;;;;;5235780;28;20507;-65
2021/04/22 02:17:27;;;;;;;9.80;6.38;;;5.80;72.10;;;;;;5200720;28;20127;-65
2021/04/22 02:19:59;;;;;;;9.32;6.47;;;5.80;73.40;;;;;;5202385;28;20044;-65
2021/04/22 02:22:30;;;;;;;7.53;5.90;;;5.70;74.20;;;;;;5200969;28;20037;-66
2021/04/22 02:25:05;;;;;;;7.72;5.75;;;5.80;74.80;;;;;;5218959;28;20045;-66
2021/04/22 02:27:38;;;;;;;9.43;6.68;;;5.70;74.40;;;;;;5202288;28;20048;-65
2021/04/22 02:30:16;;;;;;;8.93;6.40;;;5.80;74.40;;;;;;5198626;28;20049;-65
2021/04/22 02:32:48;;;;;;;8.60;6.93;;;5.80;74.40;;;;;;5203808;28;20080;-65
2021/04/22 02:35:23;;;;;;;8.77;6.22;;;5.80;74.40;;;;;;5187049;28;20931;-65
2021/04/22 02:37:55;;;;;;;7.82;6.45;;;5.90;73.70;;;;;;5197932;28;20037;-65
2021/04/22 02:40:30;;;;;;;8.60;6.03;;;5.80;74.80;;;;;;5198100;28;20150;-65
2021/04/22 02:43:05;;;;;;;7.20;5.80;;;5.90;73.90;;;;;;5201845;28;20612;-67
2021/04/22 02:45:39;;;;;;;8.38;6.40;;;5.90;74.30;;;;;;5198011;28;20038;-65
2021/04/22 02:48:11;;;;;;;8.25;5.80;;;5.90;73.80;;;;;;5195406;28;20565;-66
2021/04/22 02:50:49;;;;;;;8.18;6.65;;;5.90;74.10;;;;;;5200156;28;20545;-65
2021/04/22 02:53:22;;;;;;;10.77;6.68;;;5.80;74.20;;;;;;5232239;28;20230;-65
2021/04/22 02:55:54;;;;;;;8.77;6.80;;;5.70;75.20;;;;;;5199057;28;20064;-65
2021/04/22 02:58:28;;;;;;;9.15;6.35;;;5.70;74.40;;;;;;5200440;28;20045;-65
2021/04/22 03:00:59;;;;;;;8.05;5.97;;;5.70;74.50;;;;;;5198545;28;20033;-64
2021/04/22 03:03:31;;;;;;;8.40;6.35;;;5.70;74.70;;;;;;5234858;28;20143;-65
2021/04/22 03:06:03;;;;;;;7.90;6.30;;;5.70;74.10;;;;;;5230733;28;20049;-65
2021/04/22 03:08:35;;;;;;;8.55;6.47;;;5.70;73.90;;;;;;5197797;28;20476;-65
2021/04/22 03:11:06;;;;;;;10.50;7.05;;;5.60;74.60;;;;;;5199953;28;20813;-66
2021/04/22 03:13:38;;;;;;;7.95;6.30;;;5.60;74.70;;;;;;5234201;28;20037;-65
2021/04/22 03:16:09;;;;;;;8.95;6.50;;;5.60;74.70;;;;;;5202455;28;20061;-65
2021/04/22 03:18:41;;;;;;;8.52;6.40;;;5.60;75.00;;;;;;5202179;28;20471;-64
2021/04/22 03:21:13;;;;;;;10.75;5.97;;;5.60;74.40;;;;;;5200713;28;20046;-65
2021/04/22 03:23:44;;;;;;;7.95;6.30;;;5.70;74.00;;;;;;5199979;28;20620;-65
2021/04/22 03:26:16;;;;;;;9.35;6.10;;;5.70;74.40;;;;;;5199724;28;20123;-65
2021/04/22 03:28:47;;;;;;;9.18;6.40;;;5.70;74.50;;;;;;5206347;28;20060;-65
2021/04/22 03:31:19;;;;;;;7.57;5.90;;;5.60;74.50;;;;;;5199293;28;20118;-66
2021/04/22 03:37:06;;;;;;;8.55;5.28;;;5.70;73.30;;;;;;5201924;28;20037;-66
2021/04/22 03:39:38;;;;;;;8.70;5.60;;;5.70;73.10;;;;;;5201411;28;20041;-65
2021/04/22 03:42:09;;;;;;;8.63;5.90;;;5.70;73.40;;;;;;5200926;28;20045;-65
2021/04/22 03:44:52;;;;;;;8.52;6.57;;;5.70;73.00;;;;;;5201869;28;20443;-66
2021/04/22 03:47:24;;;;;;;7.97;6.00;;;5.60;72.80;;;;;;5202438;28;20060;-65
2021/04/22 03:49:55;;;;;;;10.57;6.05;;;5.60;72.50;;;;;;5200746;28;20041;-65
2021/04/22 03:52:27;;;;;;;8.73;5.97;;;5.60;72.50;;;;;;5200896;28;20152;-65
2021/04/22 03:54:58;;;;;;;11.63;6.15;;;5.60;72.90;;;;;;5200019;28;20045;-66
2021/04/22 03:57:29;;;;;;;7.90;6.00;;;5.60;73.10;;;;;;5202012;28;20538;-66
2021/04/22 04:00:04;;;;;;;8.25;6.03;;;5.60;73.30;;;;;;5202019;28;20057;-67
2021/04/22 04:02:35;;;;;;;8.77;7.05;;;5.60;74.10;;;;;;5198603;28;20048;-67
2021/04/22 04:05:08;;;;;;;9.88;6.65;;;5.50;74.00;;;;;;5201297;28;20060;-67
2021/04/22 04:07:39;;;;;;;9.48;7.13;;;5.50;74.10;;;;;;5202058;28;20449;-66
2021/04/22 04:10:12;;;;;;;8.80;6.82;;;5.40;74.60;;;;;;5200573;28;20554;-67
2021/04/22 04:12:43;;;;;;;8.50;6.45;;;5.40;74.50;;;;;;5201833;28;20565;-67
2021/04/22 04:15:15;;;;;;;7.85;5.95;;;5.40;73.70;;;;;;5198616;28;20115;-66
2021/04/22 04:17:47;;;;;;;8.20;6.43;;;5.50;73.40;;;;;;5202449;28;20041;-66
2021/04/22 04:20:19;;;;;;;9.05;6.80;;;5.50;73.30;;;;;;5201974;28;20368;-66
2021/04/22 04:22:51;;;;;;;9.82;6.72;;;5.50;74.00;;;;;;5204680;28;20414;-66
2021/04/22 04:25:22;;;;;;;10.27;7.60;;;5.40;73.90;;;;;;5202925;28;20093;-67
2021/04/22 04:27:53;;;;;;;10.57;6.65;;;5.40;74.60;;;;;;5203995;28;20450;-66
2021/04/22 04:30:25;;;;;;;9.85;6.80;;;5.50;74.60;;;;;;5204108;28;20106;-66
2021/04/22 04:32:57;;;;;;;8.20;6.10;;;5.40;74.80;;;;;;5205915;28;20381;-66
2021/04/22 04:35:28;;;;;;;9.73;6.28;;;5.50;74.40;;;;;;5207152;28;20060;-66
2021/04/22 04:38:02;;;;;;;7.82;5.97;;;5.50;74.00;;;;;;5203402;28;20029;-66
2021/04/22 04:40:33;;;;;;;9.52;6.15;;;5.50;73.70;;;;;;5237169;28;20744;-68
2021/04/22 04:43:05;;;;;;;9.15;6.50;;;5.50;74.30;;;;;;5201353;28;20041;-66
2021/04/22 04:45:36;;;;;;;8.50;5.97;;;5.50;74.80;;;;;;5205347;28;20053;-66
2021/04/22 04:48:08;;;;;;;9.30;6.55;;;5.50;74.70;;;;;;5200050;28;20775;-66
2021/04/22 04:50:40;;;;;;;9.73;6.20;;;5.50;75.20;;;;;;5203055;28;20164;-66
2021/04/22 04:53:11;;;;;;;8.95;6.45;;;5.50;75.10;;;;;;5233661;28;20106;-66
2021/04/22 04:55:43;;;;;;;7.97;6.30;;;5.50;74.40;;;;;;5236167;28;20969;-66
2021/04/22 04:58:14;;;;;;;11.15;6.70;;;5.60;72.90;;;;;;5205281;28;20501;-66
2021/04/22 05:00:45;;;;;;;10.30;6.97;;;5.70;74.50;;;;;;5198849;28;20041;-66
2021/04/22 05:03:17;;;;;;;13.10;7.47;;;5.70;73.60;;;;;;5199909;28;20046;-69
2021/04/22 05:05:48;;;;;;;10.50;7.95;;;5.80;72.70;;;;;;5203208;28;20732;-66
2021/04/22 05:08:19;;;;;;;14.02;7.88;;;5.90;72.50;;;;;;5200940;28;20037;-66
2021/04/22 05:10:51;;;;;;;15.20;8.50;;;5.80;73.20;;;;;;5202925;28;20053;-67
2021/04/22 05:13:23;;;;;;;10.57;7.10;;;5.80;73.30;;;;;;5235030;28;20087;-65
2021/04/22 05:15:56;;;;;;;11.45;7.45;;;5.80;73.90;;;;;;5202118;28;20060;-65
2021/04/22 05:18:28;;;;;;;9.57;7.13;;;5.80;73.90;;;;;;5201911;28;20453;-66
2021/04/22 05:21:00;;;;;;;9.25;7.40;;;5.90;73.30;;;;;;5201566;28;20461;-65
2021/04/22 05:23:31;;;;;;;9.50;6.60;;;6.00;72.70;;;;;;5202398;28;20046;-65
2021/04/22 05:26:03;;;;;;;10.25;7.10;;;6.10;72.60;;;;;;5201101;28;20037;-65
2021/04/22 05:28:34;;;;;;;9.25;6.80;;;6.20;72.50;;;;;;5201732;28;20073;-65
2021/04/22 05:31:05;;;;;;;11.45;7.72;;;6.30;72.50;;;;;;5197928;28;20053;-65
2021/04/22 05:33:37;;;;;;;12.70;7.40;;;6.40;72.70;;;;;;5197296;28;20049;-65
2021/04/22 05:36:09;;;;;;;11.77;8.43;;;6.50;72.40;;;;;;5203653;28;20045;-65
2021/04/22 05:38:40;;;;;;;10.48;7.97;;;6.60;72.20;;;;;;5201319;28;20041;-65
2021/04/22 05:41:13;;;;;;;12.77;8.68;;;6.80;72.10;;;;;;5199454;28;20121;-65
2021/04/22 05:43:44;;;;;;;9.85;7.68;;;6.90;72.00;;;;;;5196934;28;20037;-65
2021/04/22 05:46:16;;;;;;;11.52;7.53;;;7.00;71.70;;;;;;5200964;28;21646;-68
2021/04/22 05:48:47;;;;;;;11.77;8.23;;;7.10;71.20;;;;;;5200573;28;20043;-65
2021/04/22 05:51:22;;;;;;;10.13;7.30;;;7.20;70.50;;;;;;5202686;28;20041;-66
2021/04/22 05:53:54;;;;;;;9.50;7.07;;;7.30;70.10;;;;;;5202635;28;20138;-66
2021/04/22 05:56:25;;;;;;;11.18;8.20;;;7.40;69.00;;;;;;5201493;28;20590;-66
2021/04/22 05:58:57;;;;;;;10.23;7.07;;;7.40;68.30;;;;;;5202137;28;20046;-68
2021/04/22 06:01:28;;;;;;;10.40;6.88;;;7.50;68.60;;;;;;5199475;28;20159;-66
2021/04/22 06:04:00;;;;;;;9.38;6.90;;;7.50;68.70;;;;;;5202004;28;20059;-66
2021/04/22 06:06:31;;;;;;;11.20;7.05;;;7.50;69.10;;;;;;5203171;28;20465;-66
2021/04/22 06:09:03;;;;;;;9.13;6.75;;;7.60;68.70;;;;;;5201579;28;20099;-66
2021/04/22 06:11:35;;;;;;;9.25;7.03;;;7.60;68.50;;;;;;5198808;28;20077;-66
2021/04/22 06:14:06;;;;;;;10.05;7.28;;;7.70;68.60;;;;;;5202605;28;20047;-68
2021/04/22 06:16:38;;;;;;;10.63;7.57;;;7.90;69.10;;;;;;5202722;28;20034;-66
2021/04/22 06:19:10;;;;;;;11.80;8.00;;;8.00;69.00;;;;;;5201635;28;20412;-66
2021/04/22 06:21:42;;;;;;;11.52;8.15;;;8.10;69.00;;;;;;5201008;28;20713;-69
2021/04/22 06:24:15;;;;;;;10.18;7.53;;;8.20;68.80;;;;;;5204371;28;20049;-66
2021/04/22 06:26:48;;;;;;;9.65;7.05;;;8.30;69.00;;;;;;5201650;28;20049;-68
2021/04/22 06:29:20;;;;;;;9.55;6.57;;;8.40;68.50;;;;;;5203295;28;20506;-66
2021/04/22 06:31:51;;;;;;;9.98;7.25;;;8.40;65.80;;;;;;5200949;28;20049;-66
2021/04/22 06:34:23;;;;;;;11.82;6.82;;;8.50;66.60;;;;;;5202378;28;20053;-66
2021/04/22 06:36:59;;;;;;;14.70;6.68;;;8.50;66.10;;;;;;5201242;28;20045;-66
2021/04/22 06:39:31;;;;;;;13.48;6.93;;;8.60;66.30;;;;;;5193641;28;20045;-66
2021/04/22 06:42:02;;;;;;;11.80;6.82;;;8.70;65.90;;;;;;5203245;28;20091;-66
2021/04/22 06:44:34;;;;;;;12.27;6.80;;;8.70;65.40;;;;;;5213098;28;20053;-65
2021/04/22 06:47:05;;;;;;;10.10;7.57;;;8.80;65.00;;;;;;5198394;28;20050;-66
2021/04/22 06:49:37;;;;;;;8.23;6.40;;;8.90;65.20;;;;;;5198888;28;20049;-66
2021/04/22 06:52:09;;;;;;;10.40;7.05;;;8.90;63.80;;;;;;5231710;28;20057;-66
2021/04/22 06:54:40;;;;;;;9.90;6.88;;;9.00;63.70;;;;;;5199831;28;20045;-69
2021/04/22 06:57:14;;;;;;;10.15;7.18;;;9.00;64.40;;;;;;5199120;28;20048;-65
2021/04/22 06:59:45;;;;;;;10.25;7.88;;;9.10;64.00;;;;;;5233281;28;20048;-65
2021/04/22 07:02:17;;;;;;;11.77;8.27;;;9.10;63.20;;;;;;5200437;28;20033;-67
2021/04/22 07:04:48;;;;;;;12.27;7.63;;;9.10;64.40;;;;;;5201779;28;20513;-66
2021/04/22 07:07:20;;;;;;;17.10;7.15;;;9.10;64.20;;;;;;5201891;28;20041;-68
2021/04/22 07:09:51;;;;;;;11.27;6.97;;;9.20;64.10;;;;;;5233083;28;20791;-65
2021/04/22 07:12:22;;;;;;;9.43;7.20;;;9.30;63.70;;;;;;5218860;28;20057;-66
2021/04/22 07:14:54;;;;;;;9.05;6.93;;;9.30;62.70;;;;;;5199275;28;20052;-66
2021/04/22 07:17:26;;;;;;;13.30;7.60;;;9.40;63.10;;;;;;5202311;28;20553;-65
2021/04/22 07:19:57;;;;;;;10.20;8.10;;;9.50;62.40;;;;;;5200649;28;20041;-66
2021/04/22 07:22:29;;;;;;;8.48;7.30;;;9.70;62.80;;;;;;5212736;28;20040;-66
2021/04/22 07:25:02;;;;;;;11.05;7.05;;;9.90;63.30;;;;;;5233949;28;20048;-66
2021/04/22 07:27:33;;;;;;;9.20;7.50;;;10.20;61.40;;;;;;5197798;28;20751;-65
2021/04/22 07:30:06;;;;;;;8.60;6.75;;;10.20;61.00;;;;;;5199729;28;20045;-65
2021/04/22 07:32:39;;;;;;;9.00;7.05;;;10.30;60.60;;;;;;5202216;28;20625;-65
2021/04/22 07:35:12;;;;;;;8.40;6.32;;;10.30;59.70;;;;;;5200886;28;20362;-66
2021/04/22 07:37:43;;;;;;;10.25;6.63;;;10.30;58.80;;;;;;5231637;28;20091;-66
2021/04/22 07:40:21;;;;;;;10.82;7.45;;;10.60;60.20;;;;;;5198868;28;20076;-66
2021/04/22 07:42:53;;;;;;;9.35;7.38;;;10.70;59.10;;;;;;5198923;28;20148;-65
2021/04/22 07:45:27;;;;;;;13.10;8.23;;;10.80;56.10;;;;;;5229613;28;20049;-66
2021/04/22 07:48:00;;;;;;;9.38;7.28;;;10.90;56.70;;;;;;5200154;28;20107;-66
2021/04/22 07:50:34;;;;;;;9.68;7.28;;;10.90;56.30;;;;;;5230546;28;20061;-65
2021/04/22 07:53:07;;;;;;;10.27;7.57;;;11.00;56.40;;;;;;5231342;28;20944;-65
2021/04/22 07:55:44;;;;;;;9.73;6.95;;;11.10;55.80;;;;;;5197385;28;20122;-66
2021/04/22 07:58:17;;;;;;;11.80;7.10;;;11.10;55.70;;;;;;5199598;28;20559;-65
2021/04/22 08:00:49;;;;;;;11.52;7.55;;;11.20;56.00;;;;;;5201363;28;20033;-66
2021/04/22 08:03:21;;;;;;;8.55;7.28;;;11.20;53.20;;;;;;5199113;28;20095;-66
2021/04/22 08:05:56;;;;;;;9.18;7.40;;;11.20;53.20;;;;;;5198612;28;20138;-67
2021/04/22 08:08:28;;;;;;;10.88;7.68;;;11.30;55.10;;;;;;5201014;28;20058;-66
2021/04/22 08:11:01;;;;;;;9.98;7.47;;;11.20;54.20;;;;;;5197762;28;20049;-66
2021/04/22 08:13:33;;;;;;;16.55;7.80;;;11.20;54.70;;;;;;5199796;28;20042;-66
2021/04/22 08:16:04;;;;;;;9.50;7.38;;;11.30;55.90;;;;;;5201195;28;20111;-66
2021/04/22 08:18:36;;;;;;;11.20;7.55;;;11.30;55.80;;;;;;5201564;28;20041;-66
2021/04/22 08:21:08;;;;;;;9.63;7.22;;;11.30;56.40;;;;;;5200143;28;20050;-66
2021/04/22 08:23:39;;;;;;;11.75;8.00;;;11.30;56.60;;;;;;5199213;28;20068;-66
2021/04/22 08:26:18;;;;;;;9.52;7.45;;;11.40;55.20;;;;;;5201341;28;20752;-66
2021/04/22 08:28:50;;;;;;;10.77;8.00;;;11.30;55.40;;;;;;5199314;28;20044;-66
2021/04/22 08:31:28;;;;;;;10.65;8.27;;;11.30;55.80;;;;;;5198936;28;20052;-66
2021/04/22 08:34:07;;;;;;;10.25;8.13;;;11.30;55.80;;;;;;5199060;28;20598;-65
2021/04/22 08:36:38;;;;;;;10.57;7.97;;;11.40;54.90;;;;;;5198602;28;20084;-65
2021/04/22 08:39:10;;;;;;;9.02;7.80;;;11.40;54.80;;;;;;5215268;28;20057;-66
2021/04/22 08:41:42;;;;;;;9.25;7.60;;;11.30;54.80;;;;;;5195279;28;20037;-66
2021/04/22 08:44:14;;;;;;;10.95;8.10;;;11.20;55.20;;;;;;5181375;28;20096;-66
2021/04/22 08:46:45;;;;;;;9.82;7.75;;;11.30;55.30;;;;;;5193522;28;20041;-67
2021/04/22 08:49:17;;;;;;;11.57;7.75;;;11.50;56.50;;;;;;5198842;28;20037;-66
2021/04/22 08:51:49;;;;;;;9.85;8.00;;;11.80;56.10;;;;;;5197000;28;20072;-67
2021/04/22 08:54:20;;;;;;;10.30;8.40;;;12.00;53.60;;;;;;5196559;28;20821;-66
2021/04/22 08:56:51;;;;;;;11.70;8.40;;;12.20;53.00;;;;;;5199716;28;20766;-66
2021/04/22 08:59:24;;;;;;;11.30;8.52;;;12.50;52.10;;;;;;5196715;28;20050;-66
2021/04/22 09:01:55;;;;;;;9.93;8.02;;;12.70;52.70;;;;;;5227665;28;20041;-67
2021/04/22 09:04:27;;;;;;;10.32;8.10;;;13.20;52.40;;;;;;5205747;28;20103;-66
2021/04/22 09:06:59;;;;;;;8.77;7.80;;;13.60;50.50;;;;;;5203141;28;20037;-66
2021/04/22 09:09:30;;;;;;;9.20;8.13;;;13.70;50.30;;;;;;5200919;28;20122;-65
2021/04/22 09:12:12;;;;;;;9.43;7.95;;;13.70;49.10;;;;;;5199899;28;20045;-65
2021/04/22 09:14:58;;;;;;;10.65;9.07;;;13.60;49.60;;;;;;5202557;28;20057;-66
2021/04/22 09:17:29;;;;;;;11.18;8.45;;;13.50;49.00;;;;;;5201838;28;20671;-65
2021/04/22 09:20:01;;;;;;;9.80;8.00;;;13.50;49.70;;;;;;5200896;28;20042;-66
2021/04/22 09:22:39;;;;;;;11.02;8.40;;;13.30;51.10;;;;;;5201466;28;20522;-66
2021/04/22 09:25:21;;;;;;;10.00;8.52;;;13.50;51.50;;;;;;5201478;28;20041;-66
2021/04/22 09:28:04;;;;;;;9.57;7.88;;;13.90;49.80;;;;;;5201834;28;20072;-66
2021/04/22 09:30:43;;;;;;;10.95;8.40;;;13.90;49.20;;;;;;5202734;28;20053;-66
2021/04/22 09:33:23;;;;;;;9.52;7.95;;;13.60;49.10;;;;;;5202247;28;20037;-67
2021/04/22 09:36:09;;;;;;;10.13;8.38;;;13.50;49.40;;;;;;5202610;28;20047;-66
2021/04/22 09:38:52;;;;;;;11.70;9.82;;;13.40;49.80;;;;;;5201841;28;20048;-65
2021/04/22 09:41:28;;;;;;;11.20;9.80;;;13.40;49.00;;;;;;5199358;28;20144;-66
2021/04/22 09:44:06;;;;;;;11.82;9.32;;;13.90;49.50;;;;;;5200551;28;20073;-67
2021/04/22 09:46:42;;;;;;;10.13;9.05;;;14.00;48.90;;;;;;5198254;28;20045;-66
2021/04/22 09:49:19;;;;;;;11.50;8.70;;;14.10;49.40;;;;;;5202686;28;20045;-65
2021/04/22 09:51:50;;;;;;;10.07;7.80;;;14.00;47.80;;;;;;5202370;28;20983;-66
2021/04/22 09:54:23;;;;;;;9.63;8.05;;;14.00;48.30;;;;;;5201382;28;20037;-66
2021/04/22 09:56:56;;;;;;;9.63;8.35;;;14.00;49.20;;;;;;5197717;28;20838;-65
2021/04/22 09:59:28;;;;;;;9.57;8.57;;;14.20;48.60;;;;;;5227921;28;20700;-65
2021/04/22 10:02:07;;;;;;;10.75;8.73;;;14.30;48.80;;;;;;5211095;28;20041;-66
2021/04/22 10:04:57;;;;;;;9.20;8.20;;;14.10;47.30;;;;;;5200772;28;20686;-67
2021/04/22 10:07:33;;;;;;;9.87;8.83;;;14.00;48.50;;;;;;5198241;28;20053;-66
2021/04/22 10:10:25;;;;;;;11.23;8.32;;;14.00;49.50;;;;;;5202563;28;20045;-66
2021/04/22 10:13:25;;;;;;;10.30;9.00;;;14.10;48.00;;;;;;5203055;28;20114;-68
2021/04/22 10:15:58;;;;;;;11.38;9.20;;;14.00;48.70;;;;;;5192037;28;20132;-65
2021/04/22 10:18:44;;;;;;;10.00;8.82;;;14.00;48.50;;;;;;5199599;28;20609;-66
2021/04/22 10:21:16;;;;;;;10.45;9.35;;;14.00;49.20;;;;;;5187927;28;20053;-65
2021/04/22 10:23:50;;;;;;;10.82;8.82;;;13.90;47.50;;;;;;5196920;28;20029;-66
2021/04/22 10:26:22;;;;;;;14.13;9.48;;;13.90;48.80;;;;;;5199503;28;20128;-66
2021/04/22 10:28:54;;;;;;;9.38;8.38;;;13.80;49.70;;;;;;5202965;28;20052;-67
2021/04/22 10:31:26;;;;;;;9.02;8.13;;;13.90;49.70;;;;;;5198525;28;20045;-65
2021/04/22 10:33:58;;;;;;;10.73;9.27;;;14.10;49.80;;;;;;5199984;28;20049;-67
2021/04/22 10:36:31;;;;;;;11.35;8.93;;;14.10;49.60;;;;;;5202804;28;20403;-68
2021/04/22 10:39:03;;;;;;;9.88;8.88;;;14.30;48.50;;;;;;5199953;28;20628;-65
2021/04/22 10:41:35;;;;;;;9.98;8.70;;;14.20;49.70;;;;;;5195453;28;20073;-66
2021/04/22 10:44:08;;;;;;;11.27;9.40;;;14.20;46.70;;;;;;5199482;28;20622;-65
2021/04/22 10:46:40;;;;;;;12.18;9.18;;;14.30;46.60;;;;;;5196117;28;20484;-66
2021/04/22 10:49:12;;;;;;;11.43;9.98;;;14.50;45.80;;;;;;5195949;28;20099;-66
2021/04/22 10:51:45;;;;;;;12.95;9.85;;;14.40;46.70;;;;;;5204007;28;20040;-65
2021/04/22 10:54:17;;;;;;;11.02;9.25;;;14.80;46.40;;;;;;5201785;28;20049;-66
2021/04/22 10:56:49;;;;;;;12.65;9.73;;;15.30;45.40;;;;;;5197096;28;20041;-66
2021/04/22 10:59:23;;;;;;;10.93;9.80;;;15.70;43.10;;;;;;5199144;28;20045;-66
2021/04/22 11:01:54;;;;;;;16.00;11.75;;;16.10;43.10;;;;;;5198092;28;20191;-66
2021/04/22 11:04:34;;;;;;;14.25;12.68;;;16.00;45.80;;;;;;5200850;28;20041;-66
2021/04/22 11:07:21;;;;;;;13.15;11.73;;;15.70;48.10;;;;;;5198353;28;20060;-65
2021/04/22 11:09:55;;;;;;;13.10;11.70;;;15.50;47.60;;;;;;5190904;28;20044;-66
2021/04/22 11:12:31;;;;;;;13.75;12.27;;;15.30;47.70;;;;;;5198715;28;20095;-67
2021/04/22 11:15:03;;;;;;;14.20;12.70;;;15.10;47.60;;;;;;5199151;28;20113;-67
2021/04/22 11:17:36;;;;;;;18.30;14.20;;;14.90;48.30;;;;;;5229284;28;20037;-66
2021/04/22 11:20:20;;;;;;;15.05;12.90;;;15.00;48.60;;;;;;5198739;28;20742;-65
2021/04/22 11:22:51;;;;;;;15.73;13.55;;;15.00;48.40;;;;;;5202377;28;20043;-66
2021/04/22 11:25:23;;;;;;;25.50;19.38;;;14.90;48.40;;;;;;5198116;28;20057;-66
2021/04/22 11:27:56;;;;;;;31.15;18.15;;;14.80;49.70;;;;;;5212295;28;20554;-66
2021/04/22 11:30:32;;;;;;;14.93;13.15;;;14.70;49.70;;;;;;5197202;28;20606;-65
2021/04/22 11:33:03;;;;;;;18.33;15.00;;;14.60;50.30;;;;;;5199793;28;20092;-66
2021/04/22 11:35:36;;;;;;;19.45;14.45;;;14.50;51.10;;;;;;5197750;28;20107;-66
2021/04/22 11:38:09;;;;;;;27.17;21.13;;;14.50;51.00;;;;;;5198882;28;20056;-65
2021/04/22 11:40:47;;;;;;;14.32;12.30;;;14.50;49.80;;;;;;5198309;28;21044;-66
2021/04/22 11:43:26;;;;;;;13.50;11.95;;;14.50;51.40;;;;;;5197321;28;20120;-65
2021/04/22 11:46:01;;;;;;;13.50;11.77;;;14.30;51.30;;;;;;5196913;28;20254;-66
2021/04/22 11:48:43;;;;;;;14.05;11.50;;;14.20;53.00;;;;;;5199461;28;20049;-66
2021/04/22 11:51:15;;;;;;;17.55;11.70;;;14.00;52.90;;;;;;5198298;28;20102;-66
2021/04/22 11:53:47;;;;;;;14.25;11.10;;;13.80;55.80;;;;;;5232247;28;20049;-66
2021/04/22 11:56:21;;;;;;;15.10;11.68;;;13.60;56.70;;;;;;5180691;28;20048;-65
2021/04/22 11:58:53;;;;;;;12.50;10.90;;;13.50;56.80;;;;;;5200752;28;20179;-65
2021/04/22 12:01:25;;;;;;;15.75;12.18;;;13.30;60.00;;;;;;5213519;28;20048;-65
2021/04/22 12:03:57;;;;;;;13.68;11.65;;;13.00;61.50;;;;;;5194896;28;20617;-66
2021/04/22 12:06:28;;;;;;;15.45;12.00;;;12.70;61.40;;;;;;5189440;28;20065;-66
2021/04/22 12:08:59;;;;;;;17.02;12.00;;;12.50;64.00;;;;;;5191957;28;20068;-67
2021/04/22 12:11:37;;;;;;;15.40;11.82;;;12.50;64.60;;;;;;5195808;28;20046;-65
2021/04/22 12:14:12;;;;;;;16.00;12.90;;;12.50;63.60;;;;;;5198895;28;20049;-65
2021/04/22 12:16:43;;;;;;;17.05;12.50;;;12.40;67.00;;;;;;5194003;28;20072;-65
2021/04/22 12:19:23;;;;;;;15.27;12.55;;;12.30;68.80;;;;;;5197949;28;20037;-66
2021/04/22 12:21:54;;;;;;;14.63;12.90;;;12.20;68.30;;;;;;5197413;28;20038;-66
2021/04/22 12:24:26;;;;;;;16.38;13.40;;;12.00;68.60;;;;;;5197065;28;20115;-65
2021/04/22 12:26:58;;;;;;;17.83;13.70;;;11.90;67.70;;;;;;5198204;28;20091;-66
2021/04/22 12:29:32;;;;;;;20.35;15.02;;;12.00;66.90;;;;;;5198248;28;20172;-67
2021/04/22 12:32:03;;;;;;;19.02;15.95;;;12.00;65.70;;;;;;5199926;28;20048;-66
2021/04/22 12:34:36;;;;;;;24.52;18.08;;;12.00;64.70;;;;;;5200586;28;20045;-65
2021/04/22 12:37:08;;;;;;;22.38;18.23;;;12.10;65.10;;;;;;5201139;28;20042;-65
2021/04/22 12:39:41;;;;;;;17.27;14.85;;;12.00;64.30;;;;;;5204737;28;20045;-65
2021/04/22 12:42:17;;;;;;;19.17;14.98;;;12.00;63.80;;;;;;5201182;28;20123;-65
2021/04/22 12:45:07;;;;;;;16.15;13.55;;;11.90;62.50;;;;;;5202634;28;20040;-64
2021/04/22 12:47:42;;;;;;;16.35;14.25;;;11.90;62.80;;;;;;5202589;28;20053;-64
2021/04/22 12:50:28;;;;;;;16.73;13.82;;;11.90;63.80;;;;;;5202182;28;20391;-65
2021/04/22 12:53:10;;;;;;;16.23;13.82;;;11.90;62.70;;;;;;5205590;28;20055;-65
2021/04/22 12:55:47;;;;;;;16.27;13.75;;;11.80;62.50;;;;;;5201194;28;20049;-66
2021/04/22 12:58:22;;;;;;;15.70;13.77;;;11.80;63.50;;;;;;5203005;28;22505;-65
2021/04/22 13:00:56;;;;;;;16.50;13.63;;;11.80;62.80;;;;;;5201166;28;20030;-64
2021/04/22 13:03:31;;;;;;;15.07;13.48;;;11.60;64.20;;;;;;5214358;28;20099;-64
2021/04/22 13:06:04;;;;;;;16.55;14.55;;;11.50;65.00;;;;;;5200517;28;20050;-65
2021/04/22 13:08:40;;;;;;;16.50;14.68;;;11.30;67.90;;;;;;5205156;28;20040;-65
2021/04/22 13:11:15;;;;;;;19.83;15.27;;;11.00;70.20;;;;;;5202871;28;20046;-66
2021/04/22 13:13:56;;;;;;;17.92;14.85;;;10.80;71.30;;;;;;5201662;28;20587;-65
2021/04/22 13:16:41;;;;;;;19.05;15.40;;;10.70;73.00;;;;;;5200187;28;20045;-65
2021/04/22 13:19:18;;;;;;;18.88;15.50;;;10.70;73.70;;;;;;5202193;28;20123;-66